sensor_id;sensor_type;location;lat;lon;timestamp;P1;durP1;ratioP1;P2;durP2;ratioP2
20022;SDS011;10172;42.054;24.546;2023-07-13T00:00:29;5.70;;;2.65;;
20022;SDS011;10172;42.054;24.546;2023-07-13T00:02:57;3.63;;;2.35;;
20022;SDS011;10172;42.054;24.546;2023-07-13T00:05:23;4.55;;;2.75;;
20022;SDS011;10172;42.054;24.546;2023-07-13T00:07:48;5.00;;;2.70;;
20022;SDS011;10172;42.054;24.546;2023-07-13T00:10:15;5.68;;;3.00;;
20022;SDS011;10172;42.054;24.546;2023-07-13T00:12:41;3.83;;;2.53;;
20022;SDS011;10172;42.054;24.546;2023-07-13T00:15:10;4.93;;;2.60;;
20022;SDS011;10172;42.054;24.546;2023-07-13T00:17:39;4.40;;;2.50;;
20022;SDS011;10172;42.054;24.546;2023-07-13T00:20:05;3.58;;;2.65;;
20022;SDS011;10172;42.054;24.546;2023-07-13T00:22:31;4.05;;;2.03;;
20022;SDS011;10172;42.054;24.546;2023-07-13T00:24:57;3.83;;;2.42;;
20022;SDS011;10172;42.054;24.546;2023-07-13T00:27:22;5.80;;;2.67;;
20022;SDS011;10172;42.054;24.546;2023-07-13T00:29:48;3.85;;;2.17;;
20022;SDS011;10172;42.054;24.546;2023-07-13T00:32:14;4.90;;;2.90;;
20022;SDS011;10172;42.054;24.546;2023-07-13T00:34:40;7.40;;;2.75;;
20022;SDS011;10172;42.054;24.546;2023-07-13T00:37:06;3.38;;;2.65;;
20022;SDS011;10172;42.054;24.546;2023-07-13T00:39:33;3.40;;;2.38;;
20022;SDS011;10172;42.054;24.546;2023-07-13T00:42:00;5.13;;;2.60;;
20022;SDS011;10172;42.054;24.546;2023-07-13T00:44:26;3.97;;;2.38;;
20022;SDS011;10172;42.054;24.546;2023-07-13T00:46:52;4.80;;;2.60;;
20022;SDS011;10172;42.054;24.546;2023-07-13T00:49:20;5.60;;;2.45;;
20022;SDS011;10172;42.054;24.546;2023-07-13T00:51:59;4.50;;;2.53;;
20022;SDS011;10172;42.054;24.546;2023-07-13T00:54:35;3.35;;;2.40;;
20022;SDS011;10172;42.054;24.546;2023-07-13T00:57:05;5.13;;;2.83;;
20022;SDS011;10172;42.054;24.546;2023-07-13T00:59:34;3.70;;;2.50;;
20022;SDS011;10172;42.054;24.546;2023-07-13T01:02:01;5.60;;;2.63;;
20022;SDS011;10172;42.054;24.546;2023-07-13T01:04:27;6.53;;;2.25;;
20022;SDS011;10172;42.054;24.546;2023-07-13T01:06:53;5.00;;;3.20;;
20022;SDS011;10172;42.054;24.546;2023-07-13T01:09:19;4.20;;;2.50;;
20022;SDS011;10172;42.054;24.546;2023-07-13T01:11:45;5.32;;;2.95;;
20022;SDS011;10172;42.054;24.546;2023-07-13T01:14:11;4.28;;;2.63;;
20022;SDS011;10172;42.054;24.546;2023-07-13T01:16:37;3.80;;;2.53;;
20022;SDS011;10172;42.054;24.546;2023-07-13T01:19:08;3.22;;;2.03;;
20022;SDS011;10172;42.054;24.546;2023-07-13T01:21:55;3.92;;;2.67;;
20022;SDS011;10172;42.054;24.546;2023-07-13T01:24:20;4.03;;;2.53;;
20022;SDS011;10172;42.054;24.546;2023-07-13T01:26:46;4.32;;;2.65;;
20022;SDS011;10172;42.054;24.546;2023-07-13T01:29:11;2.75;;;2.20;;
20022;SDS011;10172;42.054;24.546;2023-07-13T01:31:37;3.28;;;2.15;;
20022;SDS011;10172;42.054;24.546;2023-07-13T01:34:02;3.95;;;2.42;;
20022;SDS011;10172;42.054;24.546;2023-07-13T01:36:28;4.68;;;2.70;;
20022;SDS011;10172;42.054;24.546;2023-07-13T01:38:53;3.67;;;2.55;;
20022;SDS011;10172;42.054;24.546;2023-07-13T01:41:19;4.25;;;2.60;;
20022;SDS011;10172;42.054;24.546;2023-07-13T01:43:44;6.32;;;2.78;;
20022;SDS011;10172;42.054;24.546;2023-07-13T01:46:10;3.90;;;2.60;;
20022;SDS011;10172;42.054;24.546;2023-07-13T01:48:35;4.85;;;2.63;;
20022;SDS011;10172;42.054;24.546;2023-07-13T01:51:01;4.40;;;2.30;;
20022;SDS011;10172;42.054;24.546;2023-07-13T01:53:26;5.05;;;2.75;;
20022;SDS011;10172;42.054;24.546;2023-07-13T01:55:52;4.70;;;2.47;;
20022;SDS011;10172;42.054;24.546;2023-07-13T01:58:17;5.28;;;3.00;;
20022;SDS011;10172;42.054;24.546;2023-07-13T02:00:43;4.68;;;2.58;;
20022;SDS011;10172;42.054;24.546;2023-07-13T02:03:08;6.63;;;2.88;;
20022;SDS011;10172;42.054;24.546;2023-07-13T02:05:34;4.60;;;2.78;;
20022;SDS011;10172;42.054;24.546;2023-07-13T02:08:00;5.93;;;3.28;;
20022;SDS011;10172;42.054;24.546;2023-07-13T02:10:25;5.70;;;2.92;;
20022;SDS011;10172;42.054;24.546;2023-07-13T02:12:51;5.22;;;3.33;;
20022;SDS011;10172;42.054;24.546;2023-07-13T02:15:16;5.25;;;3.13;;
20022;SDS011;10172;42.054;24.546;2023-07-13T02:17:42;5.05;;;3.22;;
20022;SDS011;10172;42.054;24.546;2023-07-13T02:20:08;5.55;;;2.97;;
20022;SDS011;10172;42.054;24.546;2023-07-13T02:22:34;6.55;;;3.08;;
20022;SDS011;10172;42.054;24.546;2023-07-13T02:25:00;4.72;;;3.08;;
20022;SDS011;10172;42.054;24.546;2023-07-13T02:27:26;5.40;;;2.67;;
20022;SDS011;10172;42.054;24.546;2023-07-13T02:29:51;5.05;;;3.30;;
20022;SDS011;10172;42.054;24.546;2023-07-13T02:32:17;5.40;;;3.33;;
20022;SDS011;10172;42.054;24.546;2023-07-13T02:34:43;5.95;;;3.60;;
20022;SDS011;10172;42.054;24.546;2023-07-13T02:37:08;4.45;;;2.88;;
20022;SDS011;10172;42.054;24.546;2023-07-13T02:39:34;6.53;;;3.10;;
20022;SDS011;10172;42.054;24.546;2023-07-13T02:41:59;5.05;;;3.00;;
20022;SDS011;10172;42.054;24.546;2023-07-13T02:44:25;5.03;;;2.70;;
20022;SDS011;10172;42.054;24.546;2023-07-13T02:46:51;3.63;;;2.40;;
20022;SDS011;10172;42.054;24.546;2023-07-13T02:49:16;5.32;;;2.80;;
20022;SDS011;10172;42.054;24.546;2023-07-13T02:51:42;4.85;;;2.90;;
20022;SDS011;10172;42.054;24.546;2023-07-13T02:54:08;6.97;;;3.17;;
20022;SDS011;10172;42.054;24.546;2023-07-13T02:56:34;5.18;;;3.05;;
20022;SDS011;10172;42.054;24.546;2023-07-13T02:58:59;5.88;;;3.58;;
20022;SDS011;10172;42.054;24.546;2023-07-13T03:01:25;5.07;;;3.58;;
20022;SDS011;10172;42.054;24.546;2023-07-13T03:03:51;7.95;;;3.75;;
20022;SDS011;10172;42.054;24.546;2023-07-13T03:06:17;9.05;;;4.07;;
20022;SDS011;10172;42.054;24.546;2023-07-13T03:08:43;7.45;;;4.40;;
20022;SDS011;10172;42.054;24.546;2023-07-13T03:11:10;7.60;;;3.47;;
20022;SDS011;10172;42.054;24.546;2023-07-13T03:13:38;7.10;;;3.50;;
20022;SDS011;10172;42.054;24.546;2023-07-13T03:16:05;8.43;;;3.60;;
20022;SDS011;10172;42.054;24.546;2023-07-13T03:18:31;8.80;;;4.05;;
20022;SDS011;10172;42.054;24.546;2023-07-13T03:20:57;5.63;;;3.65;;
20022;SDS011;10172;42.054;24.546;2023-07-13T03:23:23;8.73;;;3.95;;
20022;SDS011;10172;42.054;24.546;2023-07-13T03:25:49;8.32;;;4.60;;
20022;SDS011;10172;42.054;24.546;2023-07-13T03:28:15;8.40;;;3.85;;
20022;SDS011;10172;42.054;24.546;2023-07-13T03:30:41;5.50;;;3.17;;
20022;SDS011;10172;42.054;24.546;2023-07-13T03:33:07;9.63;;;4.55;;
20022;SDS011;10172;42.054;24.546;2023-07-13T03:35:33;7.53;;;3.88;;
20022;SDS011;10172;42.054;24.546;2023-07-13T03:37:59;7.60;;;3.88;;
20022;SDS011;10172;42.054;24.546;2023-07-13T03:40:25;8.18;;;4.15;;
20022;SDS011;10172;42.054;24.546;2023-07-13T03:42:52;9.35;;;3.90;;
20022;SDS011;10172;42.054;24.546;2023-07-13T03:45:18;7.43;;;3.60;;
20022;SDS011;10172;42.054;24.546;2023-07-13T03:47:44;6.18;;;3.58;;
20022;SDS011;10172;42.054;24.546;2023-07-13T03:50:09;5.15;;;3.08;;
20022;SDS011;10172;42.054;24.546;2023-07-13T03:52:35;5.68;;;3.42;;
20022;SDS011;10172;42.054;24.546;2023-07-13T03:55:01;4.25;;;3.10;;
20022;SDS011;10172;42.054;24.546;2023-07-13T03:57:26;5.03;;;2.95;;
20022;SDS011;10172;42.054;24.546;2023-07-13T03:59:52;4.88;;;3.15;;
20022;SDS011;10172;42.054;24.546;2023-07-13T04:02:18;4.95;;;3.22;;
20022;SDS011;10172;42.054;24.546;2023-07-13T04:04:43;4.50;;;2.80;;
20022;SDS011;10172;42.054;24.546;2023-07-13T04:07:09;6.07;;;3.60;;
20022;SDS011;10172;42.054;24.546;2023-07-13T04:09:34;4.40;;;3.08;;
20022;SDS011;10172;42.054;24.546;2023-07-13T04:12:00;5.13;;;3.25;;
20022;SDS011;10172;42.054;24.546;2023-07-13T04:14:26;5.45;;;3.30;;
20022;SDS011;10172;42.054;24.546;2023-07-13T04:16:51;6.63;;;3.30;;
20022;SDS011;10172;42.054;24.546;2023-07-13T04:19:19;6.00;;;3.72;;
20022;SDS011;10172;42.054;24.546;2023-07-13T04:21:45;7.15;;;4.35;;
20022;SDS011;10172;42.054;24.546;2023-07-13T04:24:11;9.55;;;4.38;;
20022;SDS011;10172;42.054;24.546;2023-07-13T04:26:37;6.30;;;4.03;;
20022;SDS011;10172;42.054;24.546;2023-07-13T04:29:03;7.32;;;4.05;;
20022;SDS011;10172;42.054;24.546;2023-07-13T04:31:30;7.97;;;4.25;;
20022;SDS011;10172;42.054;24.546;2023-07-13T04:33:56;6.18;;;3.60;;
20022;SDS011;10172;42.054;24.546;2023-07-13T04:36:22;6.38;;;4.65;;
20022;SDS011;10172;42.054;24.546;2023-07-13T04:38:47;7.22;;;4.45;;
20022;SDS011;10172;42.054;24.546;2023-07-13T04:41:14;7.45;;;4.30;;
20022;SDS011;10172;42.054;24.546;2023-07-13T04:43:40;6.63;;;4.00;;
20022;SDS011;10172;42.054;24.546;2023-07-13T04:46:15;9.63;;;4.85;;
20022;SDS011;10172;42.054;24.546;2023-07-13T04:48:45;8.90;;;4.97;;
20022;SDS011;10172;42.054;24.546;2023-07-13T04:51:10;7.68;;;4.63;;
20022;SDS011;10172;42.054;24.546;2023-07-13T04:53:36;7.13;;;4.70;;
20022;SDS011;10172;42.054;24.546;2023-07-13T04:56:02;9.63;;;4.68;;
20022;SDS011;10172;42.054;24.546;2023-07-13T04:58:28;8.02;;;5.05;;
20022;SDS011;10172;42.054;24.546;2023-07-13T05:00:59;7.05;;;5.03;;
20022;SDS011;10172;42.054;24.546;2023-07-13T05:03:29;8.85;;;5.30;;
20022;SDS011;10172;42.054;24.546;2023-07-13T05:05:59;9.70;;;5.75;;
20022;SDS011;10172;42.054;24.546;2023-07-13T05:08:26;11.48;;;5.90;;
20022;SDS011;10172;42.054;24.546;2023-07-13T05:10:52;11.23;;;5.72;;
20022;SDS011;10172;42.054;24.546;2023-07-13T05:13:18;7.25;;;5.03;;
20022;SDS011;10172;42.054;24.546;2023-07-13T05:15:44;8.13;;;5.22;;
20022;SDS011;10172;42.054;24.546;2023-07-13T05:18:09;8.77;;;5.10;;
20022;SDS011;10172;42.054;24.546;2023-07-13T05:20:35;9.52;;;5.20;;
20022;SDS011;10172;42.054;24.546;2023-07-13T05:23:00;8.02;;;5.18;;
20022;SDS011;10172;42.054;24.546;2023-07-13T05:25:25;7.07;;;5.18;;
20022;SDS011;10172;42.054;24.546;2023-07-13T05:27:52;9.40;;;5.35;;
20022;SDS011;10172;42.054;24.546;2023-07-13T05:30:17;9.63;;;5.45;;
20022;SDS011;10172;42.054;24.546;2023-07-13T05:32:43;9.25;;;5.35;;
20022;SDS011;10172;42.054;24.546;2023-07-13T05:35:08;8.30;;;4.97;;
20022;SDS011;10172;42.054;24.546;2023-07-13T05:37:34;6.70;;;4.60;;
20022;SDS011;10172;42.054;24.546;2023-07-13T05:39:59;6.72;;;4.28;;
20022;SDS011;10172;42.054;24.546;2023-07-13T05:42:25;9.45;;;5.70;;
20022;SDS011;10172;42.054;24.546;2023-07-13T05:44:50;8.25;;;5.60;;
20022;SDS011;10172;42.054;24.546;2023-07-13T05:47:15;7.90;;;5.35;;
20022;SDS011;10172;42.054;24.546;2023-07-13T05:49:41;9.45;;;5.78;;
20022;SDS011;10172;42.054;24.546;2023-07-13T05:52:06;7.45;;;4.93;;
20022;SDS011;10172;42.054;24.546;2023-07-13T05:54:32;7.60;;;5.28;;
20022;SDS011;10172;42.054;24.546;2023-07-13T05:56:58;8.25;;;5.40;;
20022;SDS011;10172;42.054;24.546;2023-07-13T05:59:23;7.85;;;4.55;;
20022;SDS011;10172;42.054;24.546;2023-07-13T06:01:49;7.80;;;4.70;;
20022;SDS011;10172;42.054;24.546;2023-07-13T06:04:17;11.05;;;5.45;;
20022;SDS011;10172;42.054;24.546;2023-07-13T06:06:43;10.13;;;5.15;;
20022;SDS011;10172;42.054;24.546;2023-07-13T06:09:08;8.90;;;4.85;;
20022;SDS011;10172;42.054;24.546;2023-07-13T06:11:34;9.38;;;5.32;;
20022;SDS011;10172;42.054;24.546;2023-07-13T06:14:00;8.30;;;4.85;;
20022;SDS011;10172;42.054;24.546;2023-07-13T06:16:25;12.05;;;5.20;;
20022;SDS011;10172;42.054;24.546;2023-07-13T06:18:51;9.13;;;4.68;;
20022;SDS011;10172;42.054;24.546;2023-07-13T06:21:17;7.03;;;4.90;;
20022;SDS011;10172;42.054;24.546;2023-07-13T06:23:44;6.88;;;4.68;;
20022;SDS011;10172;42.054;24.546;2023-07-13T06:26:12;7.22;;;4.88;;
20022;SDS011;10172;42.054;24.546;2023-07-13T06:28:38;7.75;;;4.25;;
20022;SDS011;10172;42.054;24.546;2023-07-13T06:31:08;7.07;;;4.75;;
20022;SDS011;10172;42.054;24.546;2023-07-13T06:33:35;9.27;;;5.03;;
20022;SDS011;10172;42.054;24.546;2023-07-13T06:36:02;6.32;;;4.47;;
20022;SDS011;10172;42.054;24.546;2023-07-13T06:38:29;7.68;;;4.60;;
20022;SDS011;10172;42.054;24.546;2023-07-13T06:40:54;8.45;;;4.88;;
20022;SDS011;10172;42.054;24.546;2023-07-13T06:43:20;6.28;;;4.30;;
20022;SDS011;10172;42.054;24.546;2023-07-13T06:45:46;6.35;;;4.38;;
20022;SDS011;10172;42.054;24.546;2023-07-13T06:48:14;6.80;;;4.47;;
20022;SDS011;10172;42.054;24.546;2023-07-13T06:50:43;15.07;;;4.75;;
20022;SDS011;10172;42.054;24.546;2023-07-13T06:53:09;11.25;;;4.65;;
20022;SDS011;10172;42.054;24.546;2023-07-13T06:55:35;7.95;;;4.65;;
20022;SDS011;10172;42.054;24.546;2023-07-13T06:58:01;7.70;;;4.00;;
20022;SDS011;10172;42.054;24.546;2023-07-13T07:00:26;8.00;;;4.50;;
20022;SDS011;10172;42.054;24.546;2023-07-13T07:02:52;6.50;;;4.13;;
20022;SDS011;10172;42.054;24.546;2023-07-13T07:05:17;5.43;;;3.85;;
20022;SDS011;10172;42.054;24.546;2023-07-13T07:07:50;5.38;;;3.88;;
20022;SDS011;10172;42.054;24.546;2023-07-13T07:10:17;6.40;;;3.80;;
20022;SDS011;10172;42.054;24.546;2023-07-13T07:12:43;6.20;;;4.00;;
20022;SDS011;10172;42.054;24.546;2023-07-13T07:15:08;6.70;;;4.40;;
20022;SDS011;10172;42.054;24.546;2023-07-13T07:17:35;5.38;;;4.13;;
20022;SDS011;10172;42.054;24.546;2023-07-13T07:20:00;8.90;;;4.32;;
20022;SDS011;10172;42.054;24.546;2023-07-13T07:22:26;8.20;;;4.00;;
20022;SDS011;10172;42.054;24.546;2023-07-13T07:24:55;7.50;;;4.20;;
20022;SDS011;10172;42.054;24.546;2023-07-13T07:27:21;5.43;;;3.63;;
20022;SDS011;10172;42.054;24.546;2023-07-13T07:29:47;6.88;;;4.05;;
20022;SDS011;10172;42.054;24.546;2023-07-13T07:32:13;6.20;;;3.80;;
20022;SDS011;10172;42.054;24.546;2023-07-13T07:34:38;7.00;;;4.15;;
20022;SDS011;10172;42.054;24.546;2023-07-13T07:37:04;6.85;;;3.67;;
20022;SDS011;10172;42.054;24.546;2023-07-13T07:39:29;5.40;;;3.78;;
20022;SDS011;10172;42.054;24.546;2023-07-13T07:41:55;6.57;;;4.07;;
20022;SDS011;10172;42.054;24.546;2023-07-13T07:44:21;6.75;;;4.60;;
20022;SDS011;10172;42.054;24.546;2023-07-13T07:46:46;7.15;;;3.40;;
20022;SDS011;10172;42.054;24.546;2023-07-13T07:49:12;7.75;;;4.10;;
20022;SDS011;10172;42.054;24.546;2023-07-13T07:51:38;7.72;;;4.00;;
20022;SDS011;10172;42.054;24.546;2023-07-13T07:54:04;6.18;;;3.92;;
20022;SDS011;10172;42.054;24.546;2023-07-13T07:56:30;6.30;;;4.25;;
20022;SDS011;10172;42.054;24.546;2023-07-13T07:58:56;6.32;;;3.60;;
20022;SDS011;10172;42.054;24.546;2023-07-13T08:01:22;6.43;;;4.00;;
20022;SDS011;10172;42.054;24.546;2023-07-13T08:03:48;5.30;;;3.60;;
20022;SDS011;10172;42.054;24.546;2023-07-13T08:06:13;6.57;;;4.28;;
20022;SDS011;10172;42.054;24.546;2023-07-13T08:08:39;7.10;;;4.07;;
20022;SDS011;10172;42.054;24.546;2023-07-13T08:11:06;6.82;;;3.70;;
20022;SDS011;10172;42.054;24.546;2023-07-13T08:13:33;6.40;;;3.78;;
20022;SDS011;10172;42.054;24.546;2023-07-13T08:15:59;5.72;;;3.78;;
20022;SDS011;10172;42.054;24.546;2023-07-13T08:18:25;6.40;;;4.10;;
20022;SDS011;10172;42.054;24.546;2023-07-13T08:20:50;5.47;;;3.55;;
20022;SDS011;10172;42.054;24.546;2023-07-13T08:23:16;5.45;;;3.50;;
20022;SDS011;10172;42.054;24.546;2023-07-13T08:25:42;5.50;;;4.00;;
20022;SDS011;10172;42.054;24.546;2023-07-13T08:28:08;7.40;;;3.42;;
20022;SDS011;10172;42.054;24.546;2023-07-13T08:30:33;4.15;;;3.35;;
20022;SDS011;10172;42.054;24.546;2023-07-13T08:32:59;6.30;;;3.95;;
20022;SDS011;10172;42.054;24.546;2023-07-13T08:35:25;6.07;;;3.20;;
20022;SDS011;10172;42.054;24.546;2023-07-13T08:37:51;6.18;;;3.80;;
20022;SDS011;10172;42.054;24.546;2023-07-13T08:40:16;7.30;;;3.58;;
20022;SDS011;10172;42.054;24.546;2023-07-13T08:42:52;5.57;;;3.47;;
20022;SDS011;10172;42.054;24.546;2023-07-13T08:45:29;5.25;;;3.58;;
20022;SDS011;10172;42.054;24.546;2023-07-13T08:50:39;5.63;;;3.22;;
20022;SDS011;10172;42.054;24.546;2023-07-13T08:53:22;6.22;;;3.53;;
20022;SDS011;10172;42.054;24.546;2023-07-13T08:55:54;5.95;;;3.90;;
20022;SDS011;10172;42.054;24.546;2023-07-13T08:58:24;5.88;;;3.10;;
20022;SDS011;10172;42.054;24.546;2023-07-13T09:04:45;4.63;;;3.13;;
20022;SDS011;10172;42.054;24.546;2023-07-13T09:09:29;6.13;;;3.10;;
20022;SDS011;10172;42.054;24.546;2023-07-13T09:12:19;4.25;;;2.97;;
20022;SDS011;10172;42.054;24.546;2023-07-13T09:14:51;4.65;;;3.08;;
20022;SDS011;10172;42.054;24.546;2023-07-13T09:18:02;5.30;;;3.05;;
20022;SDS011;10172;42.054;24.546;2023-07-13T09:23:19;7.72;;;3.28;;
20022;SDS011;10172;42.054;24.546;2023-07-13T09:25:48;5.00;;;3.10;;
20022;SDS011;10172;42.054;24.546;2023-07-13T09:28:26;5.60;;;2.75;;
20022;SDS011;10172;42.054;24.546;2023-07-13T09:31:04;6.53;;;3.08;;
20022;SDS011;10172;42.054;24.546;2023-07-13T09:33:31;6.35;;;2.50;;
20022;SDS011;10172;42.054;24.546;2023-07-13T09:35:57;4.40;;;2.20;;
20022;SDS011;10172;42.054;24.546;2023-07-13T09:38:24;4.75;;;3.30;;
20022;SDS011;10172;42.054;24.546;2023-07-13T09:40:59;3.45;;;2.63;;
20022;SDS011;10172;42.054;24.546;2023-07-13T09:43:26;4.57;;;2.65;;
20022;SDS011;10172;42.054;24.546;2023-07-13T09:45:53;6.22;;;3.10;;
20022;SDS011;10172;42.054;24.546;2023-07-13T09:48:19;5.40;;;2.95;;
20022;SDS011;10172;42.054;24.546;2023-07-13T09:50:45;4.45;;;2.88;;
20022;SDS011;10172;42.054;24.546;2023-07-13T09:53:12;4.85;;;2.72;;
20022;SDS011;10172;42.054;24.546;2023-07-13T09:55:43;3.67;;;2.47;;
20022;SDS011;10172;42.054;24.546;2023-07-13T09:58:15;3.78;;;2.80;;
20022;SDS011;10172;42.054;24.546;2023-07-13T10:00:43;5.00;;;2.85;;
20022;SDS011;10172;42.054;24.546;2023-07-13T10:03:25;8.23;;;3.08;;
20022;SDS011;10172;42.054;24.546;2023-07-13T10:06:01;4.93;;;2.75;;
20022;SDS011;10172;42.054;24.546;2023-07-13T10:08:47;5.13;;;2.75;;
20022;SDS011;10172;42.054;24.546;2023-07-13T10:16:16;4.55;;;2.25;;
20022;SDS011;10172;42.054;24.546;2023-07-13T10:18:45;4.00;;;2.38;;
20022;SDS011;10172;42.054;24.546;2023-07-13T10:21:18;4.53;;;2.40;;
20022;SDS011;10172;42.054;24.546;2023-07-13T10:23:54;2.90;;;2.00;;
20022;SDS011;10172;42.054;24.546;2023-07-13T10:26:33;3.55;;;2.30;;
20022;SDS011;10172;42.054;24.546;2023-07-13T10:29:04;3.42;;;2.33;;
20022;SDS011;10172;42.054;24.546;2023-07-13T10:31:34;3.65;;;2.35;;
20022;SDS011;10172;42.054;24.546;2023-07-13T10:34:03;7.60;;;2.70;;
20022;SDS011;10172;42.054;24.546;2023-07-13T10:36:39;4.28;;;2.30;;
20022;SDS011;10172;42.054;24.546;2023-07-13T10:39:09;4.72;;;2.45;;
20022;SDS011;10172;42.054;24.546;2023-07-13T10:41:40;3.45;;;2.40;;
20022;SDS011;10172;42.054;24.546;2023-07-13T10:44:12;3.53;;;2.30;;
20022;SDS011;10172;42.054;24.546;2023-07-13T10:46:45;4.10;;;2.70;;
20022;SDS011;10172;42.054;24.546;2023-07-13T10:49:11;4.07;;;2.63;;
20022;SDS011;10172;42.054;24.546;2023-07-13T10:51:37;3.72;;;2.90;;
20022;SDS011;10172;42.054;24.546;2023-07-13T10:56:35;3.80;;;2.55;;
20022;SDS011;10172;42.054;24.546;2023-07-13T10:59:02;3.85;;;2.30;;
20022;SDS011;10172;42.054;24.546;2023-07-13T11:04:28;3.53;;;2.55;;
20022;SDS011;10172;42.054;24.546;2023-07-13T11:07:10;4.22;;;2.60;;
20022;SDS011;10172;42.054;24.546;2023-07-13T11:09:42;6.40;;;2.65;;
20022;SDS011;10172;42.054;24.546;2023-07-13T11:20:08;2.65;;;1.95;;
20022;SDS011;10172;42.054;24.546;2023-07-13T11:22:44;4.00;;;2.40;;
20022;SDS011;10172;42.054;24.546;2023-07-13T11:25:28;4.53;;;2.35;;
20022;SDS011;10172;42.054;24.546;2023-07-13T11:28:06;5.70;;;2.85;;
20022;SDS011;10172;42.054;24.546;2023-07-13T11:30:35;4.72;;;2.33;;
20022;SDS011;10172;42.054;24.546;2023-07-13T11:33:17;5.72;;;2.30;;
20022;SDS011;10172;42.054;24.546;2023-07-13T11:38:37;4.30;;;2.55;;
20022;SDS011;10172;42.054;24.546;2023-07-13T11:41:14;3.28;;;2.05;;
20022;SDS011;10172;42.054;24.546;2023-07-13T11:43:40;6.82;;;2.60;;
20022;SDS011;10172;42.054;24.546;2023-07-13T11:46:17;4.47;;;2.30;;
20022;SDS011;10172;42.054;24.546;2023-07-13T11:48:46;5.28;;;2.10;;
20022;SDS011;10172;42.054;24.546;2023-07-13T11:54:00;8.07;;;2.60;;
20022;SDS011;10172;42.054;24.546;2023-07-13T11:56:28;4.57;;;2.35;;
20022;SDS011;10172;42.054;24.546;2023-07-13T11:58:55;4.20;;;2.30;;
20022;SDS011;10172;42.054;24.546;2023-07-13T12:01:30;4.40;;;2.45;;
20022;SDS011;10172;42.054;24.546;2023-07-13T12:04:01;5.07;;;2.13;;
20022;SDS011;10172;42.054;24.546;2023-07-13T12:08:58;4.20;;;2.22;;
20022;SDS011;10172;42.054;24.546;2023-07-13T12:11:26;9.85;;;2.95;;
20022;SDS011;10172;42.054;24.546;2023-07-13T12:13:52;3.53;;;2.00;;
20022;SDS011;10172;42.054;24.546;2023-07-13T12:16:30;3.33;;;2.17;;
20022;SDS011;10172;42.054;24.546;2023-07-13T12:18:59;4.00;;;2.33;;
20022;SDS011;10172;42.054;24.546;2023-07-13T12:21:32;3.53;;;1.73;;
20022;SDS011;10172;42.054;24.546;2023-07-13T12:24:03;3.70;;;1.98;;
20022;SDS011;10172;42.054;24.546;2023-07-13T12:26:30;4.57;;;2.15;;
20022;SDS011;10172;42.054;24.546;2023-07-13T12:28:58;4.40;;;2.30;;
20022;SDS011;10172;42.054;24.546;2023-07-13T12:34:00;5.65;;;2.28;;
20022;SDS011;10172;42.054;24.546;2023-07-13T12:36:29;4.72;;;2.20;;
20022;SDS011;10172;42.054;24.546;2023-07-13T12:38:59;3.97;;;2.13;;
20022;SDS011;10172;42.054;24.546;2023-07-13T12:41:29;3.42;;;2.20;;
20022;SDS011;10172;42.054;24.546;2023-07-13T12:43:55;4.35;;;1.95;;
20022;SDS011;10172;42.054;24.546;2023-07-13T12:46:23;5.60;;;2.58;;
20022;SDS011;10172;42.054;24.546;2023-07-13T12:48:53;3.88;;;2.22;;
20022;SDS011;10172;42.054;24.546;2023-07-13T12:51:24;4.55;;;2.13;;
20022;SDS011;10172;42.054;24.546;2023-07-13T12:54:05;4.55;;;2.05;;
20022;SDS011;10172;42.054;24.546;2023-07-13T12:56:38;2.90;;;1.90;;
20022;SDS011;10172;42.054;24.546;2023-07-13T12:59:03;4.18;;;2.33;;
20022;SDS011;10172;42.054;24.546;2023-07-13T13:01:32;6.38;;;2.08;;
20022;SDS011;10172;42.054;24.546;2023-07-13T13:04:02;4.35;;;2.20;;
20022;SDS011;10172;42.054;24.546;2023-07-13T13:06:33;5.60;;;2.58;;
20022;SDS011;10172;42.054;24.546;2023-07-13T13:09:01;3.63;;;1.95;;
20022;SDS011;10172;42.054;24.546;2023-07-13T13:11:27;3.40;;;2.05;;
20022;SDS011;10172;42.054;24.546;2023-07-13T13:13:55;6.22;;;2.38;;
20022;SDS011;10172;42.054;24.546;2023-07-13T13:16:28;6.45;;;2.38;;
20022;SDS011;10172;42.054;24.546;2023-07-13T13:19:21;3.55;;;1.88;;
20022;SDS011;10172;42.054;24.546;2023-07-13T13:21:49;4.72;;;2.83;;
20022;SDS011;10172;42.054;24.546;2023-07-13T13:24:19;5.75;;;2.47;;
20022;SDS011;10172;42.054;24.546;2023-07-13T13:26:46;12.57;;;2.80;;
20022;SDS011;10172;42.054;24.546;2023-07-13T13:29:14;5.45;;;2.50;;
20022;SDS011;10172;42.054;24.546;2023-07-13T13:31:41;3.40;;;2.17;;
20022;SDS011;10172;42.054;24.546;2023-07-13T13:34:09;3.45;;;1.90;;
20022;SDS011;10172;42.054;24.546;2023-07-13T13:36:35;5.38;;;2.47;;
20022;SDS011;10172;42.054;24.546;2023-07-13T13:39:01;3.83;;;2.35;;
20022;SDS011;10172;42.054;24.546;2023-07-13T13:41:27;6.25;;;2.22;;
20022;SDS011;10172;42.054;24.546;2023-07-13T13:43:52;5.70;;;2.72;;
20022;SDS011;10172;42.054;24.546;2023-07-13T13:46:19;9.50;;;2.72;;
20022;SDS011;10172;42.054;24.546;2023-07-13T13:48:47;5.07;;;2.13;;
20022;SDS011;10172;42.054;24.546;2023-07-13T13:51:17;3.85;;;2.10;;
20022;SDS011;10172;42.054;24.546;2023-07-13T13:53:45;7.00;;;2.58;;
20022;SDS011;10172;42.054;24.546;2023-07-13T13:56:12;10.13;;;2.53;;
20022;SDS011;10172;42.054;24.546;2023-07-13T13:58:39;10.90;;;2.50;;
20022;SDS011;10172;42.054;24.546;2023-07-13T14:01:04;3.50;;;1.95;;
20022;SDS011;10172;42.054;24.546;2023-07-13T14:03:35;4.90;;;2.35;;
20022;SDS011;10172;42.054;24.546;2023-07-13T14:06:00;4.72;;;2.03;;
20022;SDS011;10172;42.054;24.546;2023-07-13T14:08:26;6.80;;;2.22;;
20022;SDS011;10172;42.054;24.546;2023-07-13T14:10:52;5.38;;;2.33;;
20022;SDS011;10172;42.054;24.546;2023-07-13T14:14:05;7.63;;;2.45;;
20022;SDS011;10172;42.054;24.546;2023-07-13T14:16:17;6.30;;;2.15;;
20022;SDS011;10172;42.054;24.546;2023-07-13T14:18:46;6.88;;;2.25;;
20022;SDS011;10172;42.054;24.546;2023-07-13T14:21:13;4.68;;;2.35;;
20022;SDS011;10172;42.054;24.546;2023-07-13T14:23:41;6.07;;;2.55;;
20022;SDS011;10172;42.054;24.546;2023-07-13T14:26:08;4.35;;;2.40;;
20022;SDS011;10172;42.054;24.546;2023-07-13T14:28:37;6.13;;;2.45;;
20022;SDS011;10172;42.054;24.546;2023-07-13T14:31:08;9.65;;;2.60;;
20022;SDS011;10172;42.054;24.546;2023-07-13T14:33:33;6.28;;;2.22;;
20022;SDS011;10172;42.054;24.546;2023-07-13T14:35:59;4.55;;;2.13;;
20022;SDS011;10172;42.054;24.546;2023-07-13T14:38:24;3.55;;;2.42;;
20022;SDS011;10172;42.054;24.546;2023-07-13T14:40:50;6.88;;;2.30;;
20022;SDS011;10172;42.054;24.546;2023-07-13T14:43:16;5.38;;;2.47;;
20022;SDS011;10172;42.054;24.546;2023-07-13T14:45:49;8.25;;;2.55;;
20022;SDS011;10172;42.054;24.546;2023-07-13T14:48:16;4.90;;;1.95;;
20022;SDS011;10172;42.054;24.546;2023-07-13T14:50:49;3.97;;;1.75;;
20022;SDS011;10172;42.054;24.546;2023-07-13T14:53:18;5.38;;;2.17;;
20022;SDS011;10172;42.054;24.546;2023-07-13T14:55:44;5.43;;;2.22;;
20022;SDS011;10172;42.054;24.546;2023-07-13T14:58:09;7.57;;;2.67;;
20022;SDS011;10172;42.054;24.546;2023-07-13T15:00:35;4.78;;;2.40;;
20022;SDS011;10172;42.054;24.546;2023-07-13T15:03:02;5.50;;;2.20;;
20022;SDS011;10172;42.054;24.546;2023-07-13T15:05:29;4.68;;;2.20;;
20022;SDS011;10172;42.054;24.546;2023-07-13T15:08:00;6.32;;;2.17;;
20022;SDS011;10172;42.054;24.546;2023-07-13T15:10:28;3.75;;;2.05;;
20022;SDS011;10172;42.054;24.546;2023-07-13T15:13:00;4.40;;;2.40;;
20022;SDS011;10172;42.054;24.546;2023-07-13T15:15:29;4.95;;;1.67;;
20022;SDS011;10172;42.054;24.546;2023-07-13T15:17:58;6.20;;;2.15;;